Aeroporto :
LOGIN :

Iscrizione | Disclaimer

   EN    FR    IT 

 










Sommario :    VFR   VFR Marginale   IFR   IFR Intensivo   IFR Molto Intensivo
Visibilità : 
Base nubi : 
>= 8 km
>= 3000ft
5 / 8 km
1000 / 3000 ft
1500m / 5 km
500 / 1000 ft
800 / 1500m
200 / 500 ft
< 800m
< 200 ft
Simboli :   Temporali  Nebbia  Neve Forte  Precipitazioni Forti  Vento > 20 kt
SIGMETs :   Varie  Temporali  Ghiacco  Turbolenza  Onda orograficha  Ceneri Vulcaniche






- Altitudine del aeroporto : 587 ft
- Codice IATA : XCR


LFOK - Chalons Vatry

ULTIMO METAR :
  • 150730Z AUTO 01006KT 3400 -RA BR SCT004/// BKN017/// BKN022/// ///TCU 04/04 Q0996 TEMPO RADZ OVC005 BECMG 18010KT

METARs OBSOLETI :
  • 150700Z AUTO 36006KT 4800 -RA BR FEW004/// BKN019/// BKN028/// ///TCU 04/04 Q0996 TEMPO RADZ OVC005 BECMG 18010KT
  • 150630Z AUTO 34006KT 4500 RA BR FEW005/// SCT016/// BKN021/// ///TCU 04/04 Q0996 TEMPO OVC005 BECMG 18010KT
  • 150600Z AUTO 35005KT 5000 RA BR FEW007/// SCT024/// BKN034/// ///CB 04/04 Q0996 TEMPO 2000 RADZ OVC002
  • 150530Z AUTO 35005KT 6000 -RA FEW029 OVC044 04/04 Q0996 TEMPO 2000 RADZ OVC002
  • 150500Z AUTO 35007KT 6000 -RA OVC044/// ///TCU 04/04 Q0996 TEMPO 2000 RADZ OVC002

TAF TAF LFOK
Valido dal 15 a 06 ore il 16 a 06 ore UTC


150500Z 1506/1606 02010KT 9999 SCT008 OVC030
TEMPO 1506/1515 3000 RADZ OVC005
BECMG 1508/1511 18010KT
TEMPO 1515/1521 OVC008
TEMPO 1604/1606 3000 RA OVC008



MetMap, La meteo Aeronautica in un colpo d'occhio ! - Copyright ORBIFLY Dicembre 2007 - Disclaimer

ORBIFLY MET'MAP TEAM :

Programmazione e sviluppo : Alexandra Zaïnal
Concezione e sviluppo : Baudouin d'Aumeries
Co-Programmazione e sviluppo : Marc-Olivier Méhu
Supporto tecnico e logistico : Manuel Goepfert
Aiuto per la traduzione : Arnaldo La Scala

Contatto : metmap@orbifly.com




FONTI E CREDITI :

   NOAA